sensor_id;sensor_type;location;lat;lon;timestamp;pressure;altitude;pressure_sealevel;temperature;humidity
22653;BME280;11493;43.344;26.226;2023-04-01T00:01:55;98400.63;;;7.01;100.00
22653;BME280;11493;43.344;26.226;2023-04-01T00:04:22;98393.00;;;6.89;100.00
22653;BME280;11493;43.344;26.226;2023-04-01T00:06:49;98403.56;;;6.82;100.00
22653;BME280;11493;43.344;26.226;2023-04-01T00:09:16;98405.13;;;6.75;100.00
22653;BME280;11493;43.344;26.226;2023-04-01T00:11:43;98406.38;;;6.69;100.00
22653;BME280;11493;43.344;26.226;2023-04-01T00:14:12;98401.56;;;6.66;100.00
22653;BME280;11493;43.344;26.226;2023-04-01T00:16:39;98401.38;;;6.62;100.00
22653;BME280;11493;43.344;26.226;2023-04-01T00:19:06;98388.78;;;6.52;100.00
22653;BME280;11493;43.344;26.226;2023-04-01T00:21:33;98388.16;;;6.55;100.00
22653;BME280;11493;43.344;26.226;2023-04-01T00:24:00;98389.09;;;6.51;100.00
22653;BME280;11493;43.344;26.226;2023-04-01T00:26:27;98385.66;;;6.45;100.00
22653;BME280;11493;43.344;26.226;2023-04-01T00:28:54;98376.78;;;6.40;100.00
22653;BME280;11493;43.344;26.226;2023-04-01T00:31:21;98379.88;;;6.47;100.00
22653;BME280;11493;43.344;26.226;2023-04-01T00:33:48;98370.00;;;6.37;100.00
22653;BME280;11493;43.344;26.226;2023-04-01T00:36:18;98369.53;;;6.35;100.00
22653;BME280;11493;43.344;26.226;2023-04-01T00:38:45;98362.56;;;6.29;100.00
22653;BME280;11493;43.344;26.226;2023-04-01T00:41:14;98367.66;;;6.22;100.00
22653;BME280;11493;43.344;26.226;2023-04-01T00:43:45;98377.84;;;6.30;100.00
22653;BME280;11493;43.344;26.226;2023-04-01T00:46:13;98365.47;;;6.33;100.00
22653;BME280;11493;43.344;26.226;2023-04-01T00:48:49;98351.13;;;6.27;100.00
22653;BME280;11493;43.344;26.226;2023-04-01T00:51:20;98339.03;;;6.19;100.00
22653;BME280;11493;43.344;26.226;2023-04-01T00:53:51;98342.06;;;6.18;100.00
22653;BME280;11493;43.344;26.226;2023-04-01T00:56:25;98339.47;;;6.13;100.00
22653;BME280;11493;43.344;26.226;2023-04-01T00:59:14;98355.97;;;6.30;100.00
22653;BME280;11493;43.344;26.226;2023-04-01T01:01:42;98345.97;;;6.25;100.00
22653;BME280;11493;43.344;26.226;2023-04-01T01:04:29;98340.66;;;6.20;100.00
22653;BME280;11493;43.344;26.226;2023-04-01T01:07:20;98330.47;;;6.12;100.00
22653;BME280;11493;43.344;26.226;2023-04-01T01:15:24;98323.69;;;6.10;100.00
22653;BME280;11493;43.344;26.226;2023-04-01T01:23:44;98325.56;;;6.01;100.00
22653;BME280;11493;43.344;26.226;2023-04-01T01:26:48;98319.91;;;5.97;100.00
22653;BME280;11493;43.344;26.226;2023-04-01T01:36:55;98298.28;;;5.87;100.00
22653;BME280;11493;43.344;26.226;2023-04-01T01:39:30;98323.31;;;6.03;100.00
22653;BME280;11493;43.344;26.226;2023-04-01T01:42:02;98322.19;;;6.04;100.00
22653;BME280;11493;43.344;26.226;2023-04-01T01:44:31;98305.38;;;6.10;100.00
22653;BME280;11493;43.344;26.226;2023-04-01T01:46:59;98309.72;;;6.11;100.00
22653;BME280;11493;43.344;26.226;2023-04-01T01:49:27;98307.31;;;6.10;100.00
22653;BME280;11493;43.344;26.226;2023-04-01T01:51:57;98298.44;;;6.04;100.00
22653;BME280;11493;43.344;26.226;2023-04-01T01:54:24;98306.63;;;6.04;100.00
22653;BME280;11493;43.344;26.226;2023-04-01T01:56:57;98309.84;;;6.06;100.00
22653;BME280;11493;43.344;26.226;2023-04-01T01:59:29;98299.44;;;6.08;100.00
22653;BME280;11493;43.344;26.226;2023-04-01T02:01:58;98307.13;;;6.06;100.00
22653;BME280;11493;43.344;26.226;2023-04-01T02:04:26;98299.75;;;6.07;100.00
22653;BME280;11493;43.344;26.226;2023-04-01T02:07:04;98280.94;;;6.05;100.00
22653;BME280;11493;43.344;26.226;2023-04-01T02:09:34;98295.22;;;6.02;100.00
22653;BME280;11493;43.344;26.226;2023-04-01T02:12:07;98277.00;;;5.89;100.00
22653;BME280;11493;43.344;26.226;2023-04-01T02:14:43;98275.78;;;5.81;100.00
22653;BME280;11493;43.344;26.226;2023-04-01T02:17:18;98284.97;;;5.85;100.00
22653;BME280;11493;43.344;26.226;2023-04-01T02:19:57;98278.69;;;5.85;100.00
22653;BME280;11493;43.344;26.226;2023-04-01T02:22:28;98272.66;;;5.74;100.00
22653;BME280;11493;43.344;26.226;2023-04-01T02:27:59;98279.22;;;5.73;100.00
22653;BME280;11493;43.344;26.226;2023-04-01T02:30:29;98273.47;;;5.75;100.00
22653;BME280;11493;43.344;26.226;2023-04-01T02:32:58;98265.22;;;5.66;100.00
22653;BME280;11493;43.344;26.226;2023-04-01T02:35:26;98257.88;;;5.53;100.00
22653;BME280;11493;43.344;26.226;2023-04-01T02:37:55;98264.72;;;5.64;100.00
22653;BME280;11493;43.344;26.226;2023-04-01T02:40:22;98251.38;;;5.63;100.00
22653;BME280;11493;43.344;26.226;2023-04-01T02:42:49;98245.41;;;5.60;100.00
22653;BME280;11493;43.344;26.226;2023-04-01T02:45:16;98245.84;;;5.54;100.00
22653;BME280;11493;43.344;26.226;2023-04-01T02:47:43;98239.78;;;5.57;100.00
22653;BME280;11493;43.344;26.226;2023-04-01T02:50:11;98242.56;;;5.66;100.00
22653;BME280;11493;43.344;26.226;2023-04-01T02:52:38;98234.50;;;5.60;100.00
22653;BME280;11493;43.344;26.226;2023-04-01T02:55:05;98222.78;;;5.60;100.00
22653;BME280;11493;43.344;26.226;2023-04-01T02:57:32;98226.75;;;5.54;100.00
22653;BME280;11493;43.344;26.226;2023-04-01T02:59:59;98231.69;;;5.52;100.00
22653;BME280;11493;43.344;26.226;2023-04-01T03:02:27;98227.25;;;5.56;100.00
22653;BME280;11493;43.344;26.226;2023-04-01T03:04:54;98233.69;;;5.60;100.00
22653;BME280;11493;43.344;26.226;2023-04-01T03:07:21;98218.44;;;5.59;100.00
22653;BME280;11493;43.344;26.226;2023-04-01T03:09:48;98226.25;;;5.52;100.00
22653;BME280;11493;43.344;26.226;2023-04-01T03:12:15;98223.09;;;5.58;100.00
22653;BME280;11493;43.344;26.226;2023-04-01T03:14:48;98215.34;;;5.52;100.00
22653;BME280;11493;43.344;26.226;2023-04-01T03:17:16;98197.97;;;5.48;100.00
22653;BME280;11493;43.344;26.226;2023-04-01T03:19:43;98199.81;;;5.39;100.00
22653;BME280;11493;43.344;26.226;2023-04-01T03:22:11;98194.75;;;5.46;100.00
22653;BME280;11493;43.344;26.226;2023-04-01T03:24:38;98202.03;;;5.37;100.00
22653;BME280;11493;43.344;26.226;2023-04-01T03:27:05;98201.56;;;5.35;100.00
22653;BME280;11493;43.344;26.226;2023-04-01T03:29:32;98204.88;;;5.32;100.00
22653;BME280;11493;43.344;26.226;2023-04-01T03:31:59;98213.56;;;5.34;100.00
22653;BME280;11493;43.344;26.226;2023-04-01T03:34:26;98210.34;;;5.32;100.00
22653;BME280;11493;43.344;26.226;2023-04-01T03:36:53;98212.97;;;5.37;100.00
22653;BME280;11493;43.344;26.226;2023-04-01T03:39:20;98209.84;;;5.29;100.00
22653;BME280;11493;43.344;26.226;2023-04-01T03:41:48;98207.31;;;5.33;100.00
22653;BME280;11493;43.344;26.226;2023-04-01T03:44:15;98211.34;;;5.36;100.00
22653;BME280;11493;43.344;26.226;2023-04-01T03:46:45;98202.16;;;5.32;100.00
22653;BME280;11493;43.344;26.226;2023-04-01T03:49:14;98202.66;;;5.34;100.00
22653;BME280;11493;43.344;26.226;2023-04-01T03:51:42;98217.00;;;5.39;100.00
22653;BME280;11493;43.344;26.226;2023-04-01T03:54:10;98207.50;;;5.37;100.00
22653;BME280;11493;43.344;26.226;2023-04-01T03:56:37;98214.06;;;5.36;100.00
22653;BME280;11493;43.344;26.226;2023-04-01T03:59:06;98209.22;;;5.33;100.00
22653;BME280;11493;43.344;26.226;2023-04-01T04:01:33;98188.94;;;5.25;100.00
22653;BME280;11493;43.344;26.226;2023-04-01T04:04:01;98208.13;;;5.34;100.00
22653;BME280;11493;43.344;26.226;2023-04-01T04:06:28;98219.03;;;5.34;100.00
22653;BME280;11493;43.344;26.226;2023-04-01T04:08:55;98218.59;;;5.40;100.00
22653;BME280;11493;43.344;26.226;2023-04-01T04:11:22;98215.16;;;5.48;100.00
22653;BME280;11493;43.344;26.226;2023-04-01T04:13:51;98204.03;;;5.45;100.00
22653;BME280;11493;43.344;26.226;2023-04-01T04:16:20;98199.78;;;5.52;100.00
22653;BME280;11493;43.344;26.226;2023-04-01T04:18:53;98204.19;;;5.62;100.00
22653;BME280;11493;43.344;26.226;2023-04-01T04:21:20;98191.03;;;5.64;100.00
22653;BME280;11493;43.344;26.226;2023-04-01T04:23:48;98198.28;;;5.69;100.00
22653;BME280;11493;43.344;26.226;2023-04-01T04:26:17;98193.63;;;5.69;100.00
22653;BME280;11493;43.344;26.226;2023-04-01T04:28:54;98201.88;;;5.78;100.00
22653;BME280;11493;43.344;26.226;2023-04-01T04:31:23;98199.16;;;5.78;100.00
22653;BME280;11493;43.344;26.226;2023-04-01T04:33:52;98191.25;;;5.90;100.00
22653;BME280;11493;43.344;26.226;2023-04-01T04:36:20;98192.38;;;5.89;100.00
22653;BME280;11493;43.344;26.226;2023-04-01T04:38:50;98193.00;;;5.94;100.00
22653;BME280;11493;43.344;26.226;2023-04-01T04:41:19;98207.53;;;6.04;100.00
22653;BME280;11493;43.344;26.226;2023-04-01T04:43:53;98193.50;;;5.97;100.00
22653;BME280;11493;43.344;26.226;2023-04-01T04:46:22;98189.72;;;6.06;100.00
22653;BME280;11493;43.344;26.226;2023-04-01T04:48:55;98195.97;;;6.07;100.00
22653;BME280;11493;43.344;26.226;2023-04-01T04:51:23;98204.53;;;6.14;100.00
22653;BME280;11493;43.344;26.226;2023-04-01T04:53:50;98192.97;;;6.17;100.00
22653;BME280;11493;43.344;26.226;2023-04-01T04:56:21;98194.94;;;6.25;100.00
22653;BME280;11493;43.344;26.226;2023-04-01T04:58:59;98198.44;;;6.17;100.00
22653;BME280;11493;43.344;26.226;2023-04-01T05:01:38;98198.84;;;6.33;100.00
22653;BME280;11493;43.344;26.226;2023-04-01T05:04:06;98188.75;;;6.42;100.00
22653;BME280;11493;43.344;26.226;2023-04-01T05:06:33;98211.66;;;6.54;100.00
22653;BME280;11493;43.344;26.226;2023-04-01T05:09:00;98186.06;;;6.50;100.00
22653;BME280;11493;43.344;26.226;2023-04-01T05:11:27;98183.50;;;6.54;100.00
22653;BME280;11493;43.344;26.226;2023-04-01T05:13:55;98181.47;;;6.68;100.00
22653;BME280;11493;43.344;26.226;2023-04-01T05:16:22;98182.59;;;6.76;100.00
22653;BME280;11493;43.344;26.226;2023-04-01T05:18:49;98179.09;;;6.92;100.00
22653;BME280;11493;43.344;26.226;2023-04-01T05:21:16;98179.75;;;6.98;100.00
22653;BME280;11493;43.344;26.226;2023-04-01T05:23:44;98177.84;;;7.07;100.00
22653;BME280;11493;43.344;26.226;2023-04-01T05:26:13;98181.84;;;7.10;100.00
22653;BME280;11493;43.344;26.226;2023-04-01T05:28:40;98171.25;;;7.17;100.00
22653;BME280;11493;43.344;26.226;2023-04-01T05:31:08;98164.34;;;7.19;100.00
22653;BME280;11493;43.344;26.226;2023-04-01T05:33:40;98157.56;;;7.25;100.00
22653;BME280;11493;43.344;26.226;2023-04-01T05:36:14;98155.81;;;7.38;100.00
22653;BME280;11493;43.344;26.226;2023-04-01T05:38:43;98161.72;;;7.57;100.00
22653;BME280;11493;43.344;26.226;2023-04-01T05:41:13;98163.34;;;7.67;100.00
22653;BME280;11493;43.344;26.226;2023-04-01T05:43:44;98161.69;;;7.83;100.00
22653;BME280;11493;43.344;26.226;2023-04-01T05:46:40;98155.09;;;7.84;100.00
22653;BME280;11493;43.344;26.226;2023-04-01T05:49:20;98154.91;;;7.89;100.00
22653;BME280;11493;43.344;26.226;2023-04-01T05:51:48;98146.72;;;7.89;100.00
22653;BME280;11493;43.344;26.226;2023-04-01T05:54:15;98145.25;;;7.92;100.00
22653;BME280;11493;43.344;26.226;2023-04-01T05:56:44;98140.22;;;8.11;100.00
22653;BME280;11493;43.344;26.226;2023-04-01T05:59:14;98142.88;;;8.20;100.00
22653;BME280;11493;43.344;26.226;2023-04-01T06:01:41;98145.75;;;8.32;100.00
22653;BME280;11493;43.344;26.226;2023-04-01T06:04:16;98141.25;;;8.36;100.00
22653;BME280;11493;43.344;26.226;2023-04-01T06:06:45;98135.72;;;8.45;100.00
22653;BME280;11493;43.344;26.226;2023-04-01T06:09:27;98130.69;;;8.55;100.00
22653;BME280;11493;43.344;26.226;2023-04-01T06:12:40;98133.03;;;8.66;100.00
22653;BME280;11493;43.344;26.226;2023-04-01T06:15:23;98132.81;;;8.79;100.00
22653;BME280;11493;43.344;26.226;2023-04-01T06:20:25;98133.34;;;9.14;100.00
22653;BME280;11493;43.344;26.226;2023-04-01T06:23:27;98140.72;;;9.43;100.00
22653;BME280;11493;43.344;26.226;2023-04-01T06:35:17;98127.38;;;10.32;100.00
22653;BME280;11493;43.344;26.226;2023-04-01T06:38:10;98128.50;;;10.68;100.00
22653;BME280;11493;43.344;26.226;2023-04-01T06:43:25;98136.44;;;11.22;94.73
22653;BME280;11493;43.344;26.226;2023-04-01T06:46:36;98130.97;;;11.49;93.45
22653;BME280;11493;43.344;26.226;2023-04-01T06:49:46;98119.03;;;11.73;92.76
22653;BME280;11493;43.344;26.226;2023-04-01T06:55:41;98128.81;;;12.14;89.77
22653;BME280;11493;43.344;26.226;2023-04-01T06:58:53;98120.38;;;12.23;89.30
22653;BME280;11493;43.344;26.226;2023-04-01T07:01:27;98123.69;;;12.44;89.16
22653;BME280;11493;43.344;26.226;2023-04-01T07:04:05;98113.19;;;12.50;88.71
22653;BME280;11493;43.344;26.226;2023-04-01T07:06:40;98111.91;;;12.63;88.72
22653;BME280;11493;43.344;26.226;2023-04-01T07:09:14;98120.59;;;12.81;87.76
22653;BME280;11493;43.344;26.226;2023-04-01T07:12:09;98116.13;;;12.92;87.23
22653;BME280;11493;43.344;26.226;2023-04-01T07:15:03;98125.19;;;13.08;87.01
22653;BME280;11493;43.344;26.226;2023-04-01T07:17:34;98111.19;;;13.17;86.92
22653;BME280;11493;43.344;26.226;2023-04-01T07:20:14;98113.47;;;13.31;86.47
22653;BME280;11493;43.344;26.226;2023-04-01T07:22:45;98116.66;;;13.33;85.57
22653;BME280;11493;43.344;26.226;2023-04-01T07:25:56;98107.25;;;13.37;85.82
22653;BME280;11493;43.344;26.226;2023-04-01T07:29:08;98101.09;;;13.44;84.97
22653;BME280;11493;43.344;26.226;2023-04-01T07:35:43;98108.66;;;13.66;84.25
22653;BME280;11493;43.344;26.226;2023-04-01T07:38:04;98097.66;;;13.70;84.18
22653;BME280;11493;43.344;26.226;2023-04-01T07:43:27;98105.81;;;13.82;84.12
22653;BME280;11493;43.344;26.226;2023-04-01T07:49:56;98075.91;;;13.88;84.30
22653;BME280;11493;43.344;26.226;2023-04-01T08:03:12;98093.09;;;14.23;84.23
22653;BME280;11493;43.344;26.226;2023-04-01T08:06:14;98079.66;;;14.44;83.73
22653;BME280;11493;43.344;26.226;2023-04-01T08:21:13;98078.88;;;14.70;82.22
22653;BME280;11493;43.344;26.226;2023-04-01T08:23:37;98072.66;;;14.77;82.35
22653;BME280;11493;43.344;26.226;2023-04-01T08:28:49;98073.34;;;14.70;82.78
22653;BME280;11493;43.344;26.226;2023-04-01T08:33:54;98044.06;;;14.69;82.98
22653;BME280;11493;43.344;26.226;2023-04-01T08:36:29;98034.66;;;14.74;82.95
22653;BME280;11493;43.344;26.226;2023-04-01T08:39:18;98040.50;;;14.99;82.07
22653;BME280;11493;43.344;26.226;2023-04-01T08:50:39;98029.88;;;16.08;80.16
22653;BME280;11493;43.344;26.226;2023-04-01T08:56:53;98027.19;;;16.67;81.31
22653;BME280;11493;43.344;26.226;2023-04-01T09:28:49;97970.84;;;17.67;70.94
22653;BME280;11493;43.344;26.226;2023-04-01T09:37:35;97989.47;;;17.56;69.33
22653;BME280;11493;43.344;26.226;2023-04-01T09:40:14;97979.59;;;17.66;68.05
22653;BME280;11493;43.344;26.226;2023-04-01T09:43:16;97976.03;;;17.80;67.34
22653;BME280;11493;43.344;26.226;2023-04-01T09:49:00;97975.22;;;18.04;66.06
22653;BME280;11493;43.344;26.226;2023-04-01T09:54:58;97970.47;;;18.12;65.63
22653;BME280;11493;43.344;26.226;2023-04-01T10:18:12;97958.31;;;19.18;53.18
22653;BME280;11493;43.344;26.226;2023-04-01T11:09:02;97892.81;;;19.40;53.66
22653;BME280;11493;43.344;26.226;2023-04-01T11:28:36;97867.13;;;19.15;55.93
22653;BME280;11493;43.344;26.226;2023-04-01T11:40:37;97817.91;;;19.42;56.59
22653;BME280;11493;43.344;26.226;2023-04-01T11:46:46;97811.75;;;19.68;53.43
22653;BME280;11493;43.344;26.226;2023-04-01T11:52:51;97821.44;;;19.98;54.66
22653;BME280;11493;43.344;26.226;2023-04-01T12:01:02;97794.19;;;20.09;51.68
22653;BME280;11493;43.344;26.226;2023-04-01T12:12:24;97785.63;;;19.89;51.36
22653;BME280;11493;43.344;26.226;2023-04-01T12:21:02;97790.69;;;20.35;51.89
22653;BME280;11493;43.344;26.226;2023-04-01T12:32:15;97775.16;;;20.69;50.46
22653;BME280;11493;43.344;26.226;2023-04-01T12:46:47;97760.25;;;20.48;50.13
22653;BME280;11493;43.344;26.226;2023-04-01T13:17:58;97723.22;;;19.73;52.40
22653;BME280;11493;43.344;26.226;2023-04-01T13:31:44;97721.38;;;19.96;53.05
22653;BME280;11493;43.344;26.226;2023-04-01T13:42:39;97705.16;;;19.84;53.82
22653;BME280;11493;43.344;26.226;2023-04-01T13:45:21;97701.78;;;20.00;52.62
22653;BME280;11493;43.344;26.226;2023-04-01T14:07:05;97692.34;;;18.46;58.02
22653;BME280;11493;43.344;26.226;2023-04-01T14:12:43;97679.56;;;18.55;58.29
22653;BME280;11493;43.344;26.226;2023-04-01T14:15:36;97684.81;;;18.43;58.37
22653;BME280;11493;43.344;26.226;2023-04-01T14:18:13;97688.75;;;18.49;58.51
22653;BME280;11493;43.344;26.226;2023-04-01T14:20:53;97687.63;;;18.39;58.75
22653;BME280;11493;43.344;26.226;2023-04-01T14:23:41;97679.41;;;18.11;59.07
22653;BME280;11493;43.344;26.226;2023-04-01T14:26:34;97690.94;;;18.13;59.76
22653;BME280;11493;43.344;26.226;2023-04-01T14:46:17;97677.09;;;17.88;60.66
22653;BME280;11493;43.344;26.226;2023-04-01T14:49:02;97660.50;;;17.59;61.80
22653;BME280;11493;43.344;26.226;2023-04-01T14:51:35;97659.41;;;17.14;63.42
22653;BME280;11493;43.344;26.226;2023-04-01T14:54:08;97657.41;;;17.22;63.50
22653;BME280;11493;43.344;26.226;2023-04-01T14:57:01;97656.22;;;17.08;63.85
22653;BME280;11493;43.344;26.226;2023-04-01T14:59:30;97659.84;;;16.88;64.72
22653;BME280;11493;43.344;26.226;2023-04-01T15:08:21;97621.75;;;16.74;65.65
22653;BME280;11493;43.344;26.226;2023-04-01T15:19:38;97642.34;;;16.62;66.07
22653;BME280;11493;43.344;26.226;2023-04-01T15:27:53;97648.66;;;16.27;68.08
22653;BME280;11493;43.344;26.226;2023-04-01T15:33:13;97653.75;;;16.11;68.86
22653;BME280;11493;43.344;26.226;2023-04-01T15:36:08;97663.19;;;15.89;69.07
22653;BME280;11493;43.344;26.226;2023-04-01T15:38:48;97659.19;;;15.83;69.50
22653;BME280;11493;43.344;26.226;2023-04-01T15:48:31;97657.84;;;14.90;86.76
22653;BME280;11493;43.344;26.226;2023-04-01T15:50:47;97694.75;;;13.86;94.61
22653;BME280;11493;43.344;26.226;2023-04-01T15:58:59;97772.09;;;12.61;100.00
22653;BME280;11493;43.344;26.226;2023-04-01T16:13:06;97839.22;;;11.92;100.00
22653;BME280;11493;43.344;26.226;2023-04-01T16:16:00;97848.50;;;11.83;100.00
22653;BME280;11493;43.344;26.226;2023-04-01T16:18:57;97867.34;;;11.81;100.00
22653;BME280;11493;43.344;26.226;2023-04-01T16:24:30;97853.31;;;11.39;100.00
22653;BME280;11493;43.344;26.226;2023-04-01T16:27:42;97881.13;;;11.50;100.00
22653;BME280;11493;43.344;26.226;2023-04-01T16:33:09;97885.31;;;11.44;100.00
22653;BME280;11493;43.344;26.226;2023-04-01T16:35:59;97884.50;;;11.43;100.00
22653;BME280;11493;43.344;26.226;2023-04-01T16:41:34;97894.53;;;11.36;100.00
22653;BME280;11493;43.344;26.226;2023-04-01T16:44:22;97901.28;;;11.38;100.00
22653;BME280;11493;43.344;26.226;2023-04-01T16:47:07;97903.94;;;11.35;100.00
22653;BME280;11493;43.344;26.226;2023-04-01T16:52:48;97917.72;;;11.50;100.00
22653;BME280;11493;43.344;26.226;2023-04-01T16:55:21;97901.28;;;11.54;100.00
22653;BME280;11493;43.344;26.226;2023-04-01T16:57:56;97808.13;;;11.09;100.00
22653;BME280;11493;43.344;26.226;2023-04-01T17:00:49;97907.06;;;11.65;100.00
22653;BME280;11493;43.344;26.226;2023-04-01T17:03:33;97890.38;;;11.58;100.00
22653;BME280;11493;43.344;26.226;2023-04-01T17:06:16;97887.69;;;11.61;100.00
22653;BME280;11493;43.344;26.226;2023-04-01T17:11:55;97878.47;;;11.38;100.00
22653;BME280;11493;43.344;26.226;2023-04-01T17:14:57;97886.00;;;11.41;100.00
22653;BME280;11493;43.344;26.226;2023-04-01T17:20:27;97871.00;;;11.54;100.00
22653;BME280;11493;43.344;26.226;2023-04-01T17:28:57;97823.13;;;11.43;100.00
22653;BME280;11493;43.344;26.226;2023-04-01T17:31:45;97827.38;;;11.40;100.00
22653;BME280;11493;43.344;26.226;2023-04-01T17:40:26;97839.81;;;11.34;100.00
22653;BME280;11493;43.344;26.226;2023-04-01T17:45:46;97851.81;;;11.26;100.00
22653;BME280;11493;43.344;26.226;2023-04-01T17:59:24;97888.56;;;11.18;100.00
22653;BME280;11493;43.344;26.226;2023-04-01T18:08:17;97900.47;;;11.06;100.00
22653;BME280;11493;43.344;26.226;2023-04-01T18:11:00;97897.28;;;11.04;100.00
22653;BME280;11493;43.344;26.226;2023-04-01T18:13:54;97910.94;;;11.01;100.00
22653;BME280;11493;43.344;26.226;2023-04-01T18:19:29;97909.75;;;10.86;100.00
22653;BME280;11493;43.344;26.226;2023-04-01T18:24:41;97925.75;;;10.68;100.00
22653;BME280;11493;43.344;26.226;2023-04-01T18:27:32;97928.84;;;10.67;100.00
22653;BME280;11493;43.344;26.226;2023-04-01T18:30:07;97943.06;;;10.69;100.00
22653;BME280;11493;43.344;26.226;2023-04-01T18:32:56;97937.78;;;10.64;100.00
22653;BME280;11493;43.344;26.226;2023-04-01T18:41:16;97952.34;;;10.64;100.00
22653;BME280;11493;43.344;26.226;2023-04-01T18:46:40;97940.56;;;10.51;100.00
22653;BME280;11493;43.344;26.226;2023-04-01T18:49:29;97970.56;;;10.69;100.00
22653;BME280;11493;43.344;26.226;2023-04-01T18:52:02;97974.56;;;10.71;100.00
22653;BME280;11493;43.344;26.226;2023-04-01T18:55:31;97986.72;;;10.70;100.00
22653;BME280;11493;43.344;26.226;2023-04-01T18:57:46;97990.63;;;10.69;100.00
22653;BME280;11493;43.344;26.226;2023-04-01T19:00:21;97982.72;;;10.68;100.00
22653;BME280;11493;43.344;26.226;2023-04-01T19:02:58;98009.38;;;10.79;100.00
22653;BME280;11493;43.344;26.226;2023-04-01T19:05:39;98013.19;;;10.75;100.00
22653;BME280;11493;43.344;26.226;2023-04-01T19:11:02;98021.19;;;10.80;100.00
22653;BME280;11493;43.344;26.226;2023-04-01T19:19:28;98009.94;;;10.85;100.00
22653;BME280;11493;43.344;26.226;2023-04-01T19:22:13;98012.34;;;10.86;100.00
22653;BME280;11493;43.344;26.226;2023-04-01T19:25:16;98014.41;;;10.90;100.00
22653;BME280;11493;43.344;26.226;2023-04-01T19:27:53;98019.31;;;10.96;100.00
22653;BME280;11493;43.344;26.226;2023-04-01T19:30:56;98004.75;;;10.96;100.00
22653;BME280;11493;43.344;26.226;2023-04-01T19:44:23;98004.91;;;10.87;100.00
22653;BME280;11493;43.344;26.226;2023-04-01T19:47:09;98002.03;;;10.83;100.00
22653;BME280;11493;43.344;26.226;2023-04-01T19:52:36;98007.91;;;10.82;100.00
22653;BME280;11493;43.344;26.226;2023-04-01T20:05:55;98020.28;;;10.76;100.00
22653;BME280;11493;43.344;26.226;2023-04-01T20:11:37;98025.69;;;10.72;100.00
22653;BME280;11493;43.344;26.226;2023-04-01T20:25:31;98024.75;;;10.80;100.00
22653;BME280;11493;43.344;26.226;2023-04-01T20:28:14;98031.50;;;10.83;100.00
22653;BME280;11493;43.344;26.226;2023-04-01T20:31:07;98049.81;;;10.91;100.00
22653;BME280;11493;43.344;26.226;2023-04-01T20:34:01;98049.59;;;10.96;100.00
22653;BME280;11493;43.344;26.226;2023-04-01T20:48:31;98067.97;;;10.68;100.00
22653;BME280;11493;43.344;26.226;2023-04-01T20:51:14;98069.59;;;10.69;100.00
22653;BME280;11493;43.344;26.226;2023-04-01T20:54:01;98074.75;;;10.70;100.00
22653;BME280;11493;43.344;26.226;2023-04-01T21:05:11;98087.47;;;10.63;100.00
22653;BME280;11493;43.344;26.226;2023-04-01T21:08:02;98089.53;;;10.53;100.00
22653;BME280;11493;43.344;26.226;2023-04-01T21:33:15;98108.03;;;9.96;100.00
22653;BME280;11493;43.344;26.226;2023-04-01T21:41:26;98115.66;;;9.78;100.00
22653;BME280;11493;43.344;26.226;2023-04-01T21:52:37;98110.03;;;9.62;100.00
22653;BME280;11493;43.344;26.226;2023-04-01T22:00:42;98121.41;;;9.52;100.00
22653;BME280;11493;43.344;26.226;2023-04-01T22:06:10;98125.44;;;9.54;100.00
22653;BME280;11493;43.344;26.226;2023-04-01T22:09:10;98108.16;;;9.66;100.00
22653;BME280;11493;43.344;26.226;2023-04-01T22:11:46;98113.84;;;9.82;100.00
22653;BME280;11493;43.344;26.226;2023-04-01T22:14:25;98105.94;;;9.80;100.00
22653;BME280;11493;43.344;26.226;2023-04-01T22:22:49;98117.84;;;9.84;100.00
22653;BME280;11493;43.344;26.226;2023-04-01T22:28:07;98108.69;;;9.80;100.00
22653;BME280;11493;43.344;26.226;2023-04-01T22:30:41;98118.81;;;10.01;100.00
22653;BME280;11493;43.344;26.226;2023-04-01T22:42:16;98143.53;;;10.01;100.00
22653;BME280;11493;43.344;26.226;2023-04-01T22:48:08;98134.28;;;10.05;100.00
22653;BME280;11493;43.344;26.226;2023-04-01T22:50:46;98144.22;;;9.98;100.00
22653;BME280;11493;43.344;26.226;2023-04-01T22:56:35;98146.03;;;9.94;100.00
22653;BME280;11493;43.344;26.226;2023-04-01T22:59:17;98162.31;;;9.99;100.00
22653;BME280;11493;43.344;26.226;2023-04-01T23:01:55;98159.00;;;10.05;100.00
22653;BME280;11493;43.344;26.226;2023-04-01T23:04:31;98154.53;;;10.01;100.00
22653;BME280;11493;43.344;26.226;2023-04-01T23:07:03;98143.41;;;9.97;100.00
22653;BME280;11493;43.344;26.226;2023-04-01T23:09:36;98149.84;;;10.01;100.00
22653;BME280;11493;43.344;26.226;2023-04-01T23:12:11;98151.31;;;9.99;100.00
22653;BME280;11493;43.344;26.226;2023-04-01T23:14:44;98135.25;;;9.88;100.00
22653;BME280;11493;43.344;26.226;2023-04-01T23:17:31;98138.94;;;9.93;100.00
22653;BME280;11493;43.344;26.226;2023-04-01T23:20:10;98141.81;;;9.96;100.00
22653;BME280;11493;43.344;26.226;2023-04-01T23:25:39;98136.19;;;9.93;100.00
22653;BME280;11493;43.344;26.226;2023-04-01T23:28:44;98132.50;;;9.88;100.00
22653;BME280;11493;43.344;26.226;2023-04-01T23:31:38;98111.66;;;9.87;100.00
22653;BME280;11493;43.344;26.226;2023-04-01T23:36:43;98119.47;;;9.98;100.00
22653;BME280;11493;43.344;26.226;2023-04-01T23:42:29;98117.66;;;10.02;100.00
22653;BME280;11493;43.344;26.226;2023-04-01T23:45:03;98116.75;;;9.98;100.00
22653;BME280;11493;43.344;26.226;2023-04-01T23:47:34;98104.81;;;9.94;100.00
22653;BME280;11493;43.344;26.226;2023-04-01T23:50:20;98110.78;;;9.96;100.00
22653;BME280;11493;43.344;26.226;2023-04-01T23:53:02;98108.97;;;10.00;100.00
22653;BME280;11493;43.344;26.226;2023-04-01T23:55:32;98087.53;;;9.93;100.00
